createdAt,value
2018-05-16T00:00:58.831Z,21.30
2018-05-16T00:02:35.432Z,21.30
2018-05-16T00:04:12.093Z,21.30
2018-05-16T00:05:48.698Z,21.30
2018-05-16T00:07:25.802Z,21.20
2018-05-16T00:09:03.039Z,21.30
2018-05-16T00:10:40.018Z,21.30
2018-05-16T00:12:16.562Z,21.20
2018-05-16T00:13:52.966Z,21.20
2018-05-16T00:15:29.603Z,21.20
2018-05-16T00:17:06.081Z,21.30
2018-05-16T00:18:42.381Z,21.10
2018-05-16T00:20:18.677Z,21.00
2018-05-16T00:21:55.114Z,21.00
2018-05-16T00:25:18.693Z,20.90
2018-05-16T00:26:55.581Z,20.90
2018-05-16T00:28:32.270Z,20.80
2018-05-16T00:30:09.201Z,20.80
2018-05-16T00:31:47.198Z,20.80
2018-05-16T00:33:27.911Z,20.90
2018-05-16T00:35:07.448Z,20.80
2018-05-16T00:36:45.209Z,20.60
2018-05-16T00:38:28.914Z,20.60
2018-05-16T00:40:05.871Z,20.60
2018-05-16T00:41:43.120Z,20.40
2018-05-16T00:43:20.584Z,20.40
2018-05-16T00:44:58.148Z,20.40
2018-05-16T00:46:34.915Z,20.40
2018-05-16T00:48:12.121Z,20.40
2018-05-16T00:49:48.925Z,20.40
2018-05-16T00:51:33.743Z,20.40
2018-05-16T00:53:12.685Z,20.40
2018-05-16T00:54:49.122Z,20.30
2018-05-16T00:56:26.522Z,20.20
2018-05-16T00:58:03.009Z,20.20
2018-05-16T00:59:39.641Z,20.10
2018-05-16T01:01:17.614Z,20.00
2018-05-16T01:02:54.465Z,20.20
2018-05-16T01:04:38.200Z,20.20
2018-05-16T01:06:16.828Z,20.20
2018-05-16T01:07:54.815Z,20.20
2018-05-16T01:09:32.377Z,20.10
2018-05-16T01:11:08.900Z,19.90
2018-05-16T01:12:45.339Z,19.70
2018-05-16T01:14:21.730Z,19.90
2018-05-16T01:15:58.815Z,19.90
2018-05-16T01:17:36.065Z,19.70
2018-05-16T01:19:12.795Z,19.60
2018-05-16T01:20:49.508Z,19.60
2018-05-16T01:22:26.025Z,19.40
2018-05-16T01:24:03.324Z,19.30
2018-05-16T01:25:40.062Z,19.30
2018-05-16T01:27:17.412Z,19.40
2018-05-16T01:28:54.806Z,19.50
2018-05-16T01:30:32.057Z,19.50
2018-05-16T01:32:08.462Z,19.60
2018-05-16T01:33:45.961Z,19.50
2018-05-16T01:35:22.481Z,19.50
2018-05-16T01:36:58.986Z,19.50
2018-05-16T01:38:35.449Z,19.60
2018-05-16T01:40:12.954Z,19.90
2018-05-16T01:41:50.434Z,19.80
2018-05-16T01:43:27.619Z,19.60
2018-05-16T01:45:06.026Z,19.70
2018-05-16T01:46:42.797Z,19.60
2018-05-16T01:48:19.260Z,19.40
2018-05-16T01:49:57.075Z,18.90
2018-05-16T01:51:37.834Z,19.00
2018-05-16T01:53:15.896Z,18.60
2018-05-16T01:54:52.443Z,18.50
2018-05-16T01:56:30.552Z,18.40
2018-05-16T01:58:07.873Z,18.40
2018-05-16T01:59:48.334Z,18.20
2018-05-16T02:01:25.114Z,18.10
2018-05-16T02:03:02.733Z,17.80
2018-05-16T02:04:42.173Z,17.70
2018-05-16T02:06:19.626Z,17.60
2018-05-16T02:08:00.318Z,17.20
2018-05-16T02:09:37.553Z,17.20
2018-05-16T02:11:14.226Z,17.10
2018-05-16T02:12:51.903Z,17.10
2018-05-16T02:14:29.134Z,17.10
2018-05-16T02:16:07.967Z,17.10
2018-05-16T02:17:45.983Z,17.00
2018-05-16T02:19:22.751Z,17.00
2018-05-16T02:20:59.841Z,17.10
2018-05-16T02:22:36.344Z,16.90
2018-05-16T02:24:13.662Z,16.80
2018-05-16T02:25:50.731Z,16.80
2018-05-16T02:27:27.049Z,16.70
2018-05-16T02:29:03.928Z,16.80
2018-05-16T02:30:41.677Z,16.70
2018-05-16T02:32:18.913Z,16.60
2018-05-16T02:33:56.806Z,16.70
2018-05-16T02:35:33.750Z,16.70
2018-05-16T02:37:10.322Z,16.60
2018-05-16T02:38:47.163Z,16.50
2018-05-16T02:40:25.124Z,16.50
2018-05-16T02:42:02.790Z,16.50
2018-05-16T02:43:39.416Z,16.40
2018-05-16T02:45:17.335Z,16.40
2018-05-16T02:46:54.063Z,16.40
2018-05-16T02:48:31.798Z,16.30
2018-05-16T02:50:08.994Z,16.20
2018-05-16T02:51:47.660Z,16.30
2018-05-16T02:53:25.174Z,16.40
2018-05-16T02:55:01.604Z,16.30
2018-05-16T02:56:39.571Z,16.40
2018-05-16T02:58:17.942Z,16.50
2018-05-16T02:59:54.270Z,16.60
2018-05-16T03:01:34.458Z,16.80
2018-05-16T03:03:10.850Z,17.30
2018-05-16T03:04:47.731Z,17.70
2018-05-16T03:06:24.374Z,17.90
2018-05-16T03:08:01.423Z,18.00
2018-05-16T03:09:38.942Z,17.70
2018-05-16T03:11:17.115Z,17.60
2018-05-16T03:12:53.844Z,17.60
2018-05-16T03:14:30.387Z,17.50
2018-05-16T03:16:07.816Z,17.80
2018-05-16T03:17:44.568Z,18.40
2018-05-16T03:19:21.139Z,18.90
2018-05-16T03:20:58.271Z,19.00
2018-05-16T03:22:35.106Z,19.20
2018-05-16T03:24:13.139Z,18.70
2018-05-16T03:25:50.374Z,19.00
2018-05-16T03:27:27.437Z,19.00
2018-05-16T03:29:03.855Z,19.20
2018-05-16T03:30:40.868Z,19.30
2018-05-16T03:32:17.405Z,19.30
2018-05-16T03:33:54.810Z,19.00
2018-05-16T03:35:31.601Z,19.20
2018-05-16T03:37:08.664Z,19.40
2018-05-16T03:38:45.222Z,19.60
2018-05-16T03:40:21.770Z,19.60
2018-05-16T03:41:59.418Z,19.80
2018-05-16T03:43:35.817Z,19.80
2018-05-16T03:45:14.054Z,19.70
2018-05-16T03:46:50.861Z,19.50
2018-05-16T03:48:28.788Z,19.20
2018-05-16T03:50:06.455Z,19.40
2018-05-16T03:51:43.500Z,19.40
2018-05-16T03:53:20.390Z,19.10
2018-05-16T03:54:57.790Z,19.00
2018-05-16T03:56:34.724Z,19.20
2018-05-16T04:00:31.091Z,19.50
2018-05-16T04:04:30.531Z,19.50
2018-05-16T04:06:08.223Z,18.50
2018-05-16T04:07:45.716Z,18.50
2018-05-16T04:09:23.125Z,17.20
2018-05-16T04:10:59.680Z,17.20
2018-05-16T04:12:38.547Z,17.80
2018-05-16T04:14:14.940Z,17.80
2018-05-16T04:15:51.676Z,18.30
2018-05-16T04:17:28.491Z,18.40
2018-05-16T04:19:07.749Z,18.00
2018-05-16T04:20:44.238Z,18.00
2018-05-16T04:22:20.809Z,18.60
2018-05-16T04:23:57.895Z,19.10
2018-05-16T04:25:34.878Z,19.10
2018-05-16T04:27:18.052Z,18.70
2018-05-16T04:28:59.689Z,18.60
2018-05-16T04:30:39.551Z,19.20
2018-05-16T04:32:17.887Z,19.20
2018-05-16T04:33:55.737Z,19.50
2018-05-16T04:35:32.273Z,19.50
2018-05-16T04:37:08.786Z,19.20
2018-05-16T04:38:45.519Z,18.90
2018-05-16T04:40:21.866Z,18.80
2018-05-16T04:41:58.339Z,19.00
2018-05-16T04:43:34.681Z,18.90
2018-05-16T04:45:15.158Z,18.70
2018-05-16T04:46:51.585Z,18.30
2018-05-16T04:48:27.964Z,17.90
2018-05-16T04:50:05.308Z,17.10
2018-05-16T04:51:49.001Z,17.10
2018-05-16T04:53:31.440Z,17.10
2018-05-16T04:55:12.337Z,17.30
2018-05-16T04:56:52.448Z,17.30
2018-05-16T04:58:32.540Z,17.90
2018-05-16T05:00:10.637Z,17.90
2018-05-16T05:01:54.870Z,18.80
2018-05-16T05:03:38.980Z,18.80
2018-05-16T05:05:18.252Z,19.00
2018-05-16T05:06:57.230Z,19.30
2018-05-16T05:08:39.298Z,19.80
2018-05-16T05:10:20.488Z,20.50
2018-05-16T05:11:58.140Z,21.40
2018-05-16T05:13:35.474Z,22.60
2018-05-16T05:15:13.316Z,22.50
2018-05-16T05:16:51.272Z,23.20
2018-05-16T05:18:28.135Z,23.20
2018-05-16T05:20:05.190Z,23.30
2018-05-16T05:21:41.544Z,22.90
2018-05-16T05:23:18.977Z,22.60
2018-05-16T05:24:59.017Z,22.70
2018-05-16T05:26:36.154Z,22.90
2018-05-16T05:28:23.926Z,24.20
2018-05-16T05:30:03.611Z,24.30
2018-05-16T05:31:42.009Z,23.50
2018-05-16T05:33:19.298Z,23.80
2018-05-16T05:34:55.732Z,23.80
2018-05-16T05:36:33.341Z,22.50
2018-05-16T05:38:10.946Z,22.50
2018-05-16T05:39:48.111Z,22.20
2018-05-16T05:41:25.669Z,23.00
2018-05-16T05:43:02.598Z,23.10
2018-05-16T05:44:39.073Z,23.60
2018-05-16T05:46:17.520Z,23.30
2018-05-16T05:47:54.464Z,23.60
2018-05-16T05:49:31.326Z,24.40
2018-05-16T05:51:07.695Z,24.10
2018-05-16T05:52:44.158Z,23.10
2018-05-16T05:55:59.597Z,22.10
2018-05-16T05:57:36.067Z,22.10
2018-05-16T05:59:12.577Z,22.20
2018-05-16T06:00:50.082Z,23.80
2018-05-16T06:02:27.070Z,23.80
2018-05-16T06:05:45.394Z,24.80
2018-05-16T06:07:22.399Z,24.80
2018-05-16T06:09:00.452Z,25.10
2018-05-16T06:10:37.177Z,25.00
2018-05-16T06:12:19.687Z,25.10
2018-05-16T06:13:56.024Z,25.20
2018-05-16T06:15:33.740Z,25.20
2018-05-16T06:17:11.118Z,24.40
2018-05-16T06:18:48.566Z,23.30
2018-05-16T06:20:27.874Z,23.20
2018-05-16T06:22:04.660Z,23.20
2018-05-16T06:23:41.110Z,23.60
2018-05-16T06:25:27.596Z,24.30
2018-05-16T06:27:04.801Z,24.90
2018-05-16T06:28:41.696Z,24.90
2018-05-16T06:30:19.350Z,24.90
2018-05-16T06:31:56.206Z,24.70
2018-05-16T06:33:34.086Z,25.00
2018-05-16T06:35:11.398Z,25.50
2018-05-16T06:36:48.528Z,25.30
2018-05-16T06:38:25.957Z,25.30
2018-05-16T06:40:02.475Z,25.00
2018-05-16T06:41:39.641Z,24.90
2018-05-16T06:43:19.734Z,25.00
2018-05-16T06:44:56.412Z,25.00
2018-05-16T06:46:33.035Z,24.90
2018-05-16T06:48:10.399Z,24.90
2018-05-16T06:49:46.905Z,24.60
2018-05-16T06:51:24.859Z,23.90
2018-05-16T06:53:02.285Z,23.80
2018-05-16T06:54:38.969Z,23.60
2018-05-16T06:56:20.827Z,23.20
2018-05-16T06:57:59.421Z,23.10
2018-05-16T06:59:39.718Z,23.40
2018-05-16T07:01:24.823Z,23.40
2018-05-16T07:03:01.218Z,23.60
2018-05-16T07:04:47.746Z,24.00
2018-05-16T07:06:24.478Z,23.90
2018-05-16T07:08:01.084Z,24.10
2018-05-16T07:09:37.754Z,23.40
2018-05-16T07:11:15.684Z,23.40
2018-05-16T07:13:00.595Z,23.40
2018-05-16T07:14:37.491Z,23.30
2018-05-16T07:16:14.341Z,23.40
2018-05-16T07:18:11.931Z,23.00
2018-05-16T07:21:19.722Z,22.40
2018-05-16T07:22:56.507Z,22.40
2018-05-16T07:24:32.867Z,22.30
2018-05-16T07:26:09.705Z,22.50
2018-05-16T07:27:46.053Z,22.80
2018-05-16T07:29:22.723Z,22.90
2018-05-16T07:30:59.966Z,23.20
2018-05-16T07:32:36.807Z,23.20
2018-05-16T07:34:13.142Z,23.60
2018-05-16T07:35:49.630Z,23.50
2018-05-16T07:37:26.122Z,23.20
2018-05-16T07:39:03.924Z,22.80
2018-05-16T07:40:41.217Z,22.80
2018-05-16T07:42:17.715Z,22.80
2018-05-16T07:43:54.899Z,22.80
2018-05-16T07:45:32.762Z,22.80
2018-05-16T07:47:09.796Z,22.80
2018-05-16T07:48:47.001Z,23.20
2018-05-16T07:50:24.174Z,23.20
2018-05-16T07:52:01.913Z,23.20
2018-05-16T07:53:38.388Z,23.10
2018-05-16T07:55:15.560Z,22.50
2018-05-16T07:56:51.856Z,22.50
2018-05-16T07:58:29.856Z,22.80
2018-05-16T08:00:06.354Z,23.10
2018-05-16T08:01:43.011Z,23.10
2018-05-16T08:03:19.448Z,23.20
2018-05-16T08:04:57.173Z,23.30
2018-05-16T08:06:33.888Z,23.30
2018-05-16T08:08:11.477Z,23.20
2018-05-16T08:09:48.655Z,23.30
2018-05-16T08:11:26.357Z,23.50
2018-05-16T08:13:03.426Z,23.00
2018-05-16T08:14:39.817Z,23.00
2018-05-16T08:16:17.285Z,23.40
2018-05-16T08:17:54.872Z,23.50
2018-05-16T08:19:32.054Z,23.20
2018-05-16T08:21:08.356Z,23.20
2018-05-16T08:22:45.145Z,23.00
2018-05-16T08:24:22.090Z,22.80
2018-05-16T08:25:59.000Z,22.80
2018-05-16T08:27:36.497Z,22.80
2018-05-16T08:29:12.817Z,22.80
2018-05-16T08:30:49.699Z,23.10
2018-05-16T08:32:27.073Z,23.50
2018-05-16T08:34:03.691Z,23.70
2018-05-16T08:35:40.770Z,23.70
2018-05-16T08:37:17.663Z,23.70
2018-05-16T08:38:54.023Z,23.70
2018-05-16T08:40:30.445Z,23.40
2018-05-16T08:42:07.266Z,23.30
2018-05-16T08:43:43.545Z,22.80
2018-05-16T08:45:22.083Z,22.80
2018-05-16T08:46:59.555Z,22.80
2018-05-16T08:48:36.463Z,22.60
2018-05-16T08:50:12.964Z,22.60
2018-05-16T08:51:49.343Z,22.00
2018-05-16T08:55:08.530Z,22.10
2018-05-16T08:56:44.913Z,22.10
2018-05-16T08:58:21.288Z,22.10
2018-05-16T08:59:57.753Z,22.10
2018-05-16T09:01:34.728Z,22.20
2018-05-16T09:03:11.253Z,22.00
2018-05-16T09:04:47.654Z,22.00
2018-05-16T09:06:24.609Z,22.00
2018-05-16T09:08:01.377Z,22.00
2018-05-16T09:09:37.924Z,22.00
2018-05-16T09:11:14.402Z,22.10
2018-05-16T09:12:51.551Z,22.50
2018-05-16T09:14:28.779Z,22.50
2018-05-16T09:16:05.416Z,22.00
2018-05-16T09:17:42.097Z,22.40
2018-05-16T09:19:18.758Z,22.30
2018-05-16T09:20:56.385Z,22.10
2018-05-16T09:22:32.798Z,22.20
2018-05-16T09:24:09.302Z,21.90
2018-05-16T09:25:45.717Z,22.20
2018-05-16T09:27:22.543Z,22.20
2018-05-16T09:28:59.041Z,22.20
2018-05-16T09:30:35.639Z,22.30
2018-05-16T09:32:12.792Z,22.30
2018-05-16T09:33:49.654Z,22.30
2018-05-16T09:35:26.013Z,22.20
2018-05-16T09:37:02.379Z,22.20
2018-05-16T09:38:39.140Z,21.70
2018-05-16T09:40:16.455Z,22.20
2018-05-16T09:41:52.817Z,22.10
2018-05-16T09:43:30.047Z,22.60
2018-05-16T09:45:06.460Z,22.60
2018-05-16T09:46:43.796Z,22.80
2018-05-16T09:48:20.892Z,21.90
2018-05-16T09:49:57.198Z,21.90
2018-05-16T09:51:34.121Z,21.40
2018-05-16T09:53:11.173Z,21.60
2018-05-16T09:54:47.535Z,21.80
2018-05-16T09:56:24.822Z,22.30
2018-05-16T09:58:01.983Z,22.80
2018-05-16T09:59:38.432Z,22.80
2018-05-16T10:01:15.753Z,23.00
2018-05-16T10:02:52.544Z,23.00
2018-05-16T10:04:28.896Z,22.90
2018-05-16T10:06:05.652Z,22.90
2018-05-16T10:07:42.030Z,22.90
2018-05-16T10:09:18.406Z,22.90
2018-05-16T10:10:54.731Z,22.90
2018-05-16T10:12:32.227Z,23.10
2018-05-16T10:14:08.582Z,23.10
2018-05-16T10:15:45.173Z,23.20
2018-05-16T10:17:21.479Z,23.10
2018-05-16T10:18:58.422Z,23.00
2018-05-16T10:20:34.669Z,22.90
2018-05-16T10:22:10.990Z,23.10
2018-05-16T10:23:48.139Z,23.10
2018-05-16T10:25:25.682Z,23.20
2018-05-16T10:27:02.259Z,23.10
2018-05-16T10:28:38.509Z,22.90
2018-05-16T10:30:17.768Z,21.90
2018-05-16T10:31:54.808Z,21.90
2018-05-16T10:33:32.153Z,22.10
2018-05-16T10:35:08.733Z,22.10
2018-05-16T10:36:45.020Z,22.10
2018-05-16T10:38:23.186Z,21.90
2018-05-16T10:39:59.507Z,21.90
2018-05-16T10:41:35.816Z,22.10
2018-05-16T10:43:12.241Z,22.40
2018-05-16T10:44:48.578Z,22.40
2018-05-16T10:46:25.911Z,22.80
2018-05-16T10:48:02.291Z,22.80
2018-05-16T10:51:24.455Z,22.60
2018-05-16T10:53:01.558Z,22.00
2018-05-16T10:54:37.868Z,22.00
2018-05-16T10:56:14.537Z,22.40
2018-05-16T10:57:50.879Z,22.00
2018-05-16T10:59:27.286Z,22.10
2018-05-16T11:01:03.789Z,22.40
2018-05-16T11:02:40.505Z,21.50
2018-05-16T11:04:16.855Z,21.20
2018-05-16T11:05:53.307Z,21.30
2018-05-16T11:07:29.550Z,22.00
2018-05-16T11:09:07.273Z,21.70
2018-05-16T11:10:44.846Z,22.10
2018-05-16T11:12:21.186Z,22.20
2018-05-16T11:13:57.525Z,22.40
2018-05-16T11:15:34.591Z,22.60
2018-05-16T11:17:11.715Z,22.60
2018-05-16T11:18:47.987Z,22.60
2018-05-16T11:20:24.379Z,22.50
2018-05-16T11:22:01.169Z,22.90
2018-05-16T11:23:38.226Z,22.80
2018-05-16T11:25:14.561Z,22.80
2018-05-16T11:26:51.914Z,22.80
2018-05-16T11:28:28.731Z,22.80
2018-05-16T11:30:05.198Z,22.70
2018-05-16T11:31:41.869Z,22.30
2018-05-16T11:33:18.264Z,22.70
2018-05-16T11:34:55.877Z,22.90
2018-05-16T11:36:32.236Z,22.90
2018-05-16T11:38:08.578Z,22.80
2018-05-16T11:39:45.621Z,22.90
2018-05-16T11:41:22.281Z,22.80
2018-05-16T11:42:58.576Z,22.80
2018-05-16T11:44:34.949Z,23.00
2018-05-16T11:46:11.489Z,22.90
2018-05-16T11:47:49.043Z,23.00
2018-05-16T11:49:25.374Z,23.00
2018-05-16T11:51:01.724Z,23.00
2018-05-16T11:52:38.809Z,22.50
2018-05-16T11:54:16.127Z,22.80
2018-05-16T11:55:52.426Z,22.80
2018-05-16T11:57:28.671Z,22.90
2018-05-16T11:59:05.023Z,23.20
2018-05-16T12:00:41.633Z,23.30
2018-05-16T12:02:18.687Z,22.90
2018-05-16T12:03:55.654Z,22.90
2018-05-16T12:05:31.984Z,22.80
2018-05-16T12:07:08.677Z,22.30
2018-05-16T12:08:45.118Z,22.00
2018-05-16T12:10:23.200Z,22.50
2018-05-16T12:11:59.501Z,22.50
2018-05-16T12:13:36.382Z,22.20
2018-05-16T12:15:12.708Z,21.40
2018-05-16T12:16:52.874Z,21.60
2018-05-16T12:20:05.272Z,22.10
2018-05-16T12:21:41.736Z,22.10
2018-05-16T12:23:17.976Z,22.30
2018-05-16T12:24:55.049Z,21.80
2018-05-16T12:26:31.711Z,21.80
2018-05-16T12:28:08.745Z,22.00
2018-05-16T12:29:44.995Z,22.00
2018-05-16T12:31:21.386Z,21.50
2018-05-16T12:32:59.283Z,21.70
2018-05-16T12:34:35.765Z,21.70
2018-05-16T12:36:12.132Z,21.70
2018-05-16T12:37:48.547Z,21.60
2018-05-16T12:39:25.312Z,21.00
2018-05-16T12:41:01.766Z,21.10
2018-05-16T12:42:39.182Z,21.30
2018-05-16T12:44:15.533Z,21.40
2018-05-16T12:45:53.724Z,21.60
2018-05-16T12:47:31.098Z,21.70
2018-05-16T12:49:07.445Z,21.80
2018-05-16T12:50:44.192Z,22.00
2018-05-16T12:52:21.352Z,21.40
2018-05-16T12:53:57.750Z,21.30
2018-05-16T12:55:34.912Z,21.60
2018-05-16T12:57:11.253Z,21.60
2018-05-16T12:58:48.165Z,21.00
2018-05-16T13:00:26.446Z,21.00
2018-05-16T13:02:02.776Z,21.60
2018-05-16T13:03:39.332Z,21.90
2018-05-16T13:05:16.400Z,22.10
2018-05-16T13:06:54.648Z,21.90
2018-05-16T13:08:30.967Z,21.90
2018-05-16T13:10:07.267Z,21.70
2018-05-16T13:11:45.079Z,21.30
2018-05-16T13:13:23.273Z,21.60
2018-05-16T13:15:00.975Z,21.20
2018-05-16T13:16:37.541Z,21.30
2018-05-16T13:18:15.261Z,21.30
2018-05-16T13:19:51.630Z,21.30
2018-05-16T13:21:29.734Z,21.80
2018-05-16T13:23:07.269Z,21.70
2018-05-16T13:24:44.988Z,21.90
2018-05-16T13:26:21.256Z,21.70
2018-05-16T13:27:59.931Z,21.70
2018-05-16T13:29:37.488Z,21.40
2018-05-16T13:31:16.818Z,21.80
2018-05-16T13:34:40.660Z,21.70
2018-05-16T13:36:20.042Z,22.00
2018-05-16T13:37:57.746Z,21.60
2018-05-16T13:39:34.193Z,21.10
2018-05-16T13:41:10.539Z,20.80
2018-05-16T13:42:46.978Z,21.00
2018-05-16T13:44:23.394Z,21.10
2018-05-16T13:46:00.865Z,21.10
2018-05-16T13:47:38.707Z,20.90
2018-05-16T13:49:15.272Z,21.00
2018-05-16T13:50:51.922Z,21.10
2018-05-16T13:52:28.272Z,20.90
2018-05-16T13:54:05.252Z,21.30
2018-05-16T13:55:41.598Z,21.30
2018-05-16T13:57:18.352Z,21.30
2018-05-16T13:58:55.540Z,21.10
2018-05-16T14:00:32.968Z,21.00
2018-05-16T14:02:09.385Z,21.00
2018-05-16T14:03:46.508Z,21.00
2018-05-16T14:05:22.920Z,21.00
2018-05-16T14:07:00.871Z,21.30
2018-05-16T14:08:37.190Z,21.30
2018-05-16T14:10:14.752Z,21.20
2018-05-16T14:11:51.259Z,21.20
2018-05-16T14:13:27.598Z,21.30
2018-05-16T14:15:04.866Z,21.30
2018-05-16T14:16:41.953Z,21.40
2018-05-16T14:18:18.413Z,21.40
2018-05-16T14:19:54.874Z,21.30
2018-05-16T14:21:31.276Z,21.50
2018-05-16T14:23:07.964Z,21.50
2018-05-16T14:24:50.711Z,21.50
2018-05-16T14:26:27.226Z,21.30
2018-05-16T14:28:03.603Z,21.30
2018-05-16T14:29:39.991Z,21.40
2018-05-16T14:31:16.589Z,21.50
2018-05-16T14:32:53.229Z,21.20
2018-05-16T14:34:29.562Z,21.00
2018-05-16T14:36:06.493Z,21.10
2018-05-16T14:37:43.711Z,21.10
2018-05-16T14:39:20.142Z,21.00
2018-05-16T14:40:56.490Z,21.00
2018-05-16T14:42:33.125Z,21.00
2018-05-16T14:44:10.350Z,20.90
2018-05-16T14:45:47.413Z,21.20
2018-05-16T14:47:23.944Z,21.20
2018-05-16T14:49:00.784Z,21.00
2018-05-16T14:50:37.263Z,21.00
2018-05-16T14:52:13.705Z,21.10
2018-05-16T14:53:50.800Z,20.90
2018-05-16T14:55:27.697Z,20.90
2018-05-16T14:57:04.126Z,21.00
2018-05-16T14:58:40.460Z,20.70
2018-05-16T15:00:19.511Z,20.60
2018-05-16T15:01:59.072Z,20.60
2018-05-16T15:03:39.169Z,20.60
2018-05-16T15:05:16.063Z,20.70
2018-05-16T15:06:53.255Z,20.60
2018-05-16T15:08:30.773Z,20.50
2018-05-16T15:10:07.190Z,20.50
2018-05-16T15:11:44.356Z,20.60
2018-05-16T15:13:20.723Z,20.60
2018-05-16T15:14:58.455Z,20.60
2018-05-16T15:16:35.172Z,20.60
2018-05-16T15:18:11.570Z,20.70
2018-05-16T15:19:48.035Z,20.80
2018-05-16T15:21:25.779Z,20.90
2018-05-16T15:23:02.301Z,21.10
2018-05-16T15:24:38.655Z,21.80
2018-05-16T15:26:15.017Z,22.40
2018-05-16T15:27:53.059Z,23.00
2018-05-16T15:29:29.361Z,23.00
2018-05-16T15:31:05.999Z,23.20
2018-05-16T15:32:42.601Z,23.40
2018-05-16T15:34:19.551Z,23.50
2018-05-16T15:35:58.425Z,23.70
2018-05-16T15:37:36.796Z,23.70
2018-05-16T15:39:14.219Z,23.60
2018-05-16T15:40:50.577Z,23.60
2018-05-16T15:42:27.032Z,23.40
2018-05-16T15:44:04.550Z,23.60
2018-05-16T15:45:41.554Z,23.60
2018-05-16T15:47:18.372Z,23.80
2018-05-16T15:48:55.692Z,23.90
2018-05-16T15:50:32.513Z,23.90
2018-05-16T15:52:09.826Z,24.00
2018-05-16T15:53:47.027Z,23.90
2018-05-16T15:55:23.537Z,23.70
2018-05-16T15:57:00.271Z,23.60
2018-05-16T15:58:37.280Z,23.60
2018-05-16T16:00:15.546Z,23.60
2018-05-16T16:01:52.352Z,23.60
2018-05-16T16:03:29.909Z,23.50
2018-05-16T16:05:06.466Z,23.40
2018-05-16T16:06:43.961Z,23.20
2018-05-16T16:08:21.656Z,23.30
2018-05-16T16:09:59.661Z,23.60
2018-05-16T16:11:36.029Z,23.70
2018-05-16T16:13:12.643Z,23.80
2018-05-16T16:14:50.909Z,23.90
2018-05-16T16:16:31.179Z,24.00
2018-05-16T16:18:08.342Z,24.10
2018-05-16T16:19:46.707Z,24.10
2018-05-16T16:21:23.665Z,24.00
2018-05-16T16:23:06.448Z,24.00
2018-05-16T16:24:46.761Z,23.90
2018-05-16T16:26:23.408Z,23.90
2018-05-16T16:27:59.770Z,23.80
2018-05-16T16:29:36.469Z,23.80
2018-05-16T16:31:13.464Z,23.70
2018-05-16T16:32:54.572Z,23.50
2018-05-16T16:34:31.201Z,23.50
2018-05-16T16:36:10.985Z,23.50
2018-05-16T16:37:47.778Z,23.60
2018-05-16T16:39:33.573Z,23.70
2018-05-16T16:41:10.592Z,23.80
2018-05-16T16:42:48.537Z,23.60
2018-05-16T16:44:26.202Z,23.70
2018-05-16T16:46:03.148Z,23.70
2018-05-16T16:47:39.818Z,23.70
2018-05-16T16:49:16.821Z,23.90
2018-05-16T16:50:53.690Z,24.10
2018-05-16T16:52:30.806Z,24.10
2018-05-16T16:54:07.593Z,24.10
2018-05-16T16:55:46.641Z,24.10
2018-05-16T16:57:23.399Z,24.10
2018-05-16T16:59:00.053Z,24.20
2018-05-16T17:00:37.092Z,24.20
2018-05-16T17:02:22.002Z,24.20
2018-05-16T17:03:58.363Z,24.20
2018-05-16T17:05:34.715Z,24.30
2018-05-16T17:07:11.998Z,24.50
2018-05-16T17:08:48.862Z,24.40
2018-05-16T17:10:25.200Z,24.40
2018-05-16T17:12:01.754Z,24.40
2018-05-16T17:13:38.073Z,24.30
2018-05-16T17:15:17.664Z,24.20
2018-05-16T17:16:55.027Z,24.00
2018-05-16T17:18:32.529Z,24.00
2018-05-16T17:20:12.169Z,23.60
2018-05-16T17:21:51.657Z,23.60
2018-05-16T17:23:27.960Z,22.90
2018-05-16T17:25:04.253Z,20.90
2018-05-16T17:26:40.607Z,20.00
2018-05-16T17:28:17.320Z,19.40
2018-05-16T17:29:53.950Z,19.00
2018-05-16T17:31:30.538Z,18.90
2018-05-16T17:33:07.650Z,18.70
2018-05-16T17:34:45.988Z,18.00
2018-05-16T17:36:22.249Z,18.00
2018-05-16T17:37:58.654Z,17.60
2018-05-16T17:39:35.033Z,17.50
2018-05-16T17:41:13.434Z,17.70
2018-05-16T17:42:49.867Z,17.40
2018-05-16T17:44:26.935Z,17.30
2018-05-16T17:46:03.408Z,17.50
2018-05-16T17:47:40.415Z,17.60
2018-05-16T17:49:16.970Z,17.50
2018-05-16T17:50:58.594Z,17.50
2018-05-16T17:52:35.327Z,17.50
2018-05-16T17:54:12.357Z,17.40
2018-05-16T17:55:48.810Z,17.40
2018-05-16T17:57:25.334Z,17.50
2018-05-16T17:59:01.636Z,17.30
2018-05-16T18:00:38.566Z,17.30
2018-05-16T18:02:16.014Z,17.70
2018-05-16T18:03:52.552Z,17.60
2018-05-16T18:05:28.960Z,18.00
2018-05-16T18:07:05.890Z,18.50
2018-05-16T18:08:42.169Z,19.00
2018-05-16T18:10:18.560Z,19.20
2018-05-16T18:11:54.844Z,19.40
2018-05-16T18:13:52.767Z,19.50
2018-05-16T18:15:53.331Z,19.80
2018-05-16T18:17:32.105Z,19.80
2018-05-16T18:19:08.988Z,19.80
2018-05-16T18:20:45.363Z,19.80
2018-05-16T18:22:21.807Z,19.90
2018-05-16T18:23:58.193Z,20.00
2018-05-16T18:25:35.249Z,20.10
2018-05-16T18:27:12.404Z,20.20
2018-05-16T18:28:52.178Z,20.10
2018-05-16T18:30:31.279Z,20.30
2018-05-16T18:32:08.891Z,20.30
2018-05-16T18:33:45.564Z,20.30
2018-05-16T18:35:22.645Z,20.30
2018-05-16T18:36:59.445Z,19.50
2018-05-16T18:38:36.754Z,18.60
2018-05-16T18:40:13.778Z,17.90
2018-05-16T18:41:50.503Z,17.50
2018-05-16T18:43:28.389Z,17.40
2018-05-16T18:45:05.247Z,17.30
2018-05-16T18:46:41.869Z,17.40
2018-05-16T18:48:21.231Z,17.50
2018-05-16T18:49:58.463Z,17.80
2018-05-16T18:51:35.272Z,17.70
2018-05-16T18:53:12.393Z,18.00
2018-05-16T18:54:49.618Z,18.00
2018-05-16T18:56:25.965Z,18.20
2018-05-16T18:58:03.615Z,18.50
2018-05-16T18:59:40.821Z,19.50
2018-05-16T19:01:17.397Z,19.50
2018-05-16T19:02:54.017Z,19.60
2018-05-16T19:04:30.901Z,19.70
2018-05-16T19:06:08.063Z,20.10
2018-05-16T19:07:44.455Z,20.10
2018-05-16T19:09:21.644Z,19.80
2018-05-16T19:10:58.452Z,19.80
2018-05-16T19:12:34.872Z,19.80
2018-05-16T19:14:11.986Z,19.70
2018-05-16T19:15:49.104Z,19.60
2018-05-16T19:17:26.410Z,19.40
2018-05-16T19:19:02.814Z,19.40
2018-05-16T19:20:39.231Z,19.40
2018-05-16T19:22:15.937Z,19.50
2018-05-16T19:23:52.877Z,19.50
2018-05-16T19:25:30.033Z,19.30
2018-05-16T19:27:06.999Z,19.30
2018-05-16T19:28:43.338Z,19.20
2018-05-16T19:30:21.394Z,19.10
2018-05-16T19:31:58.791Z,19.00
2018-05-16T19:33:35.980Z,19.00
2018-05-16T19:35:13.408Z,19.00
2018-05-16T19:36:50.281Z,19.00
2018-05-16T19:38:26.707Z,19.00
2018-05-16T19:40:03.139Z,19.20
2018-05-16T19:41:40.226Z,19.60
2018-05-16T19:43:16.978Z,19.50
2018-05-16T19:44:53.440Z,19.60
2018-05-16T19:46:30.069Z,19.60
2018-05-16T19:48:06.538Z,19.70
2018-05-16T19:49:43.222Z,19.70
2018-05-16T19:51:19.619Z,19.60
2018-05-16T19:52:56.142Z,19.30
2018-05-16T19:54:33.718Z,19.50
2018-05-16T19:56:10.772Z,19.60
2018-05-16T19:57:47.871Z,19.20
2018-05-16T19:59:25.162Z,19.10
2018-05-16T20:01:01.853Z,19.10
2018-05-16T20:02:39.275Z,19.20
2018-05-16T20:04:17.094Z,19.30
2018-05-16T20:05:54.519Z,19.40
2018-05-16T20:07:31.978Z,19.50
2018-05-16T20:09:10.774Z,19.40
2018-05-16T20:10:48.891Z,19.20
2018-05-16T20:12:25.989Z,19.00
2018-05-16T20:14:02.432Z,19.00
2018-05-16T20:15:42.147Z,18.60
2018-05-16T20:17:21.604Z,18.60
2018-05-16T20:18:58.908Z,18.50
2018-05-16T20:20:35.999Z,18.30
2018-05-16T20:22:12.698Z,18.30
2018-05-16T20:23:49.112Z,18.30
2018-05-16T20:25:25.479Z,18.10
2018-05-16T20:27:02.636Z,18.00
2018-05-16T20:28:39.654Z,18.00
2018-05-16T20:30:19.262Z,18.10
2018-05-16T20:31:56.887Z,18.20
2018-05-16T20:33:33.695Z,18.30
2018-05-16T20:35:10.998Z,18.50
2018-05-16T20:36:47.551Z,18.60
2018-05-16T20:38:23.923Z,18.40
2018-05-16T20:40:00.481Z,18.30
2018-05-16T20:41:37.259Z,18.10
2018-05-16T20:43:13.727Z,18.10
2018-05-16T20:44:50.217Z,18.00
2018-05-16T20:46:26.962Z,17.90
2018-05-16T20:48:04.716Z,17.80
2018-05-16T20:49:41.067Z,17.80
2018-05-16T20:51:17.399Z,17.70
2018-05-16T20:52:54.595Z,17.80
2018-05-16T20:54:31.495Z,17.80
2018-05-16T20:56:07.989Z,17.80
2018-05-16T20:57:45.062Z,17.60
2018-05-16T20:59:21.418Z,17.60
2018-05-16T21:00:58.498Z,17.40
2018-05-16T21:02:35.683Z,17.40
2018-05-16T21:04:11.973Z,17.40
2018-05-16T21:05:48.366Z,17.50
2018-05-16T21:07:25.196Z,17.50
2018-05-16T21:09:02.384Z,17.60
2018-05-16T21:10:39.603Z,17.50
2018-05-16T21:12:16.582Z,17.50